Terminal Aerodrome Forecast
Issued by NWS

Home | Current Version | Previous Version | Text Only | Print | Product List | Glossary On
Versions: 1 2 3 4 5 6 7 8 9 10 11 12 13
000
FTUS42 TJSJ 221134
TAFJBQ
TAF
TJBQ 221134Z 2212/2312 10002KT P6SM FEW020 BKN200
     FM221450 07010KT P6SM SCT030 SCT200
     FM221800 07014G21KT P6SM VCSH SCT025 BKN045
     FM222200 10004KT P6SM FEW025=

USA.gov is the U.S. government's official web portal to all federal, state and local government web resources and services.